Pagrindinis puslapis
METAR-TAF:

METAR-TAF

Oro uostai :

Rangūnas, Mianmaras

platuma: 16-46N, ilguma: 096-10E, Aukštis: 14 m

Dabartinis oras

Ataskaita buvo paskelbta 34 minutes, ne 20:30 UTC
Vėjas 6 kt iš Pietų/Pietvakarių
Temperatūra 28°C
Drėgmė 84%
Slėgis 1009 hPa
Matomumas: 6000 m
Su prošvaistėmis ne aukštis 2000 ft
Mažai debesys ne aukštis 3000 ft, Liūtiniai kamuoliniai debesys.
Su prošvaistėmis ne aukštis 12000 ft

METAR: VYYY 122030Z 21006KT 6000 BKN020 FEW030CB BKN120 28/25 Q1009

Laikas: 03:34 (21:04 UTC)

Prognozė

Ataskaita buvo paskelbta 4 valandos ir 4 minutes, ne 17:00 UTC
Prognozė galioja nuo 12 metu 18 UTC su 13 metu 18 UTC
Vėjas 5 kt iš Vakarų/Pietvakarių
Matomumas: 7000 m
Išsisklaidę debesys ne aukštis 2500 ft
Išsisklaidę debesys ne aukštis 11000 ft
Laikinai
nuo 12 metu 18 UTC su 12 metu 24 UTC
Vėjas 5 kt iš Pietų/Pietvakarių
Matomumas: 7000 m
Išsisklaidę debesys ne aukštis 2000 ft
Su prošvaistėmis ne aukštis 10000 ft

TAF: VYYY 121700Z 1218/1318 24005KT 7000 SCT025 SCT110 TEMPO 1218/1224 21005KT 7000 SCT020 BKN100

Orai ataskaitas ir orų prognozės (METAR, TAF).

turimą stotys yra geltonos ir raudonos taškus žemėlapyje.

Perkelti pele per norėdami pamatyti stoties vardą.

Tada spustelėkite, norėdami matyti oro stebėjimo ir prognozės.

Norėdami pakeisti žemėlapį: spustelėkite ant žalios mygtukų su juodo kryžiaus žemyn,; žalią mygtuką su brūkšneliu, jei norite nutolinti; arba žalių rodyklių gretimoms žemėlapius.


METAR-TAF: